Time,TemperatureF,DewpointF,PressureIn,WindDirection,WindDirectionDegrees,WindSpeedMPH,WindSpeedGustMPH,Humidity,HourlyPrecipIn,Conditions,Clouds,dailyrainin,SolarRadiationWatts/m^2,SoftwareType,DateUTC
2013-06-14 00:22:00,62.0,34.0,-100.00,NNW,338,1.0,2.0,35,0.00,,,0.00,0.000000,,2013-06-14 07:22:00,
2013-06-14 00:33:00,62.0,34.0,-100.00,NNW,338,1.0,2.0,35,0.00,,,0.00,0.000000,,2013-06-14 07:33:00,
2013-06-14 00:43:00,62.0,34.0,-100.00,NNW,338,1.0,2.0,35,0.00,,,0.00,0.000000,,2013-06-14 07:43:00,
2013-06-14 00:51:00,60.0,33.0,-100.00,NNW,343,1.0,2.0,36,0.00,,,0.00,0.000000,,2013-06-14 07:51:00,
2013-06-14 01:22:00,60.0,33.0,-100.00,NNW,343,1.0,2.0,36,0.00,,,0.00,0.000000,,2013-06-14 08:22:00,
2013-06-14 01:33:00,60.0,33.0,-100.00,NNW,343,1.0,2.0,36,0.00,,,0.00,0.000000,,2013-06-14 08:33:00,
2013-06-14 01:43:00,60.0,33.0,-100.00,NNW,343,1.0,2.0,36,0.00,,,0.00,0.000000,,2013-06-14 08:43:00,
2013-06-14 01:51:00,58.0,33.0,-100.00,North,359,1.0,2.0,38,0.00,,,0.00,0.000000,,2013-06-14 08:51:00,
2013-06-14 02:22:00,58.0,33.0,-100.00,North,359,1.0,2.0,38,0.00,,,0.00,0.000000,,2013-06-14 09:22:00,
2013-06-14 02:33:00,58.0,33.0,-100.00,North,359,1.0,2.0,38,0.00,,,0.00,0.000000,,2013-06-14 09:33:00,
2013-06-14 02:43:00,58.0,33.0,-100.00,North,359,1.0,2.0,38,0.00,,,0.00,0.000000,,2013-06-14 09:43:00,
2013-06-14 02:51:00,56.0,32.0,-100.00,North,4,1.0,3.0,40,0.00,,,0.00,0.000000,,2013-06-14 09:51:00,
2013-06-14 03:22:00,56.0,32.0,-100.00,North,4,1.0,3.0,40,0.00,,,0.00,0.000000,,2013-06-14 10:22:00,
2013-06-14 03:34:00,56.0,32.0,-100.00,North,4,1.0,3.0,40,0.00,,,0.00,0.000000,,2013-06-14 10:34:00,
2013-06-14 03:43:00,56.0,32.0,-100.00,North,4,1.0,3.0,40,0.00,,,0.00,0.000000,,2013-06-14 10:43:00,
2013-06-14 03:51:00,54.0,31.0,-100.00,NNW,344,1.0,2.0,42,0.00,,,0.00,0.000000,,2013-06-14 10:51:00,
2013-06-14 04:22:00,54.0,31.0,-100.00,NNW,344,1.0,2.0,42,0.00,,,0.00,0.000000,,2013-06-14 11:22:00,
2013-06-14 04:32:00,54.0,31.0,-100.00,NNW,344,1.0,2.0,42,0.00,,,0.00,0.000000,,2013-06-14 11:32:00,
2013-06-14 04:43:00,54.0,31.0,-100.00,NNW,344,1.0,2.0,42,0.00,,,0.00,0.000000,,2013-06-14 11:43:00,
2013-06-14 04:51:00,52.0,32.0,-100.00,NW,318,1.0,2.0,46,0.00,,,0.00,0.000000,,2013-06-14 11:51:00,
2013-06-14 05:22:00,52.0,32.0,-100.00,NW,318,1.0,2.0,46,0.00,,,0.00,0.000000,,2013-06-14 12:22:00,
2013-06-14 05:32:00,52.0,32.0,-100.00,NW,318,1.0,2.0,46,0.00,,,0.00,0.000000,,2013-06-14 12:32:00,
2013-06-14 05:43:00,52.0,32.0,-100.00,NW,318,1.0,2.0,46,0.00,,,0.00,0.000000,,2013-06-14 12:43:00,
2013-06-14 05:51:00,52.0,31.0,-100.00,North,2,1.0,2.0,45,0.00,,,0.00,2.000000,,2013-06-14 12:51:00,
2013-06-14 06:22:00,52.0,31.0,-100.00,North,2,1.0,2.0,45,0.00,,,0.00,2.000000,,2013-06-14 13:22:00,
2013-06-14 06:33:00,52.0,31.0,-100.00,North,2,1.0,2.0,45,0.00,,,0.00,2.000000,,2013-06-14 13:33:00,
2013-06-14 06:43:00,52.0,31.0,-100.00,North,2,1.0,2.0,45,0.00,,,0.00,2.000000,,2013-06-14 13:43:00,
2013-06-14 07:11:00,52.0,34.0,-100.00,North,358,1.0,2.0,50,-99.99,,,0.00,35.000000,,2013-06-14 14:11:00,
2013-06-14 07:51:00,60.0,37.0,-100.00,SSW,195,1.0,2.0,42,-99.99,,,0.00,221.000000,,2013-06-14 14:51:00,
2013-06-14 08:11:00,60.0,37.0,-100.00,SSW,195,1.0,2.0,42,-99.99,,,0.00,221.000000,,2013-06-14 15:11:00,
2013-06-14 08:23:00,60.0,37.0,-100.00,SSW,195,1.0,2.0,42,-99.99,,,0.00,221.000000,,2013-06-14 15:23:00,
2013-06-14 08:33:00,60.0,37.0,-100.00,SSW,195,1.0,2.0,42,-99.99,,,0.00,221.000000,,2013-06-14 15:33:00,
2013-06-14 08:43:00,60.0,37.0,-100.00,SSW,195,1.0,2.0,42,-99.99,,,0.00,221.000000,,2013-06-14 15:43:00,
2013-06-14 08:51:00,73.0,39.0,-100.00,East,83,1.0,4.0,29,-99.99,,,0.00,597.000000,,2013-06-14 15:51:00,
2013-06-14 09:22:00,73.0,39.0,-100.00,East,83,1.0,4.0,29,-99.99,,,0.00,597.000000,,2013-06-14 16:22:00,
2013-06-14 09:32:00,73.0,39.0,-100.00,East,83,1.0,4.0,29,-99.99,,,0.00,597.000000,,2013-06-14 16:32:00,
2013-06-14 09:43:00,73.0,39.0,-100.00,East,83,1.0,4.0,29,-99.99,,,0.00,597.000000,,2013-06-14 16:43:00,
2013-06-14 09:51:00,81.0,33.0,-100.00,SSE,148,2.0,5.0,18,0.00,,,0.00,826.000000,,2013-06-14 16:51:00,
2013-06-14 10:11:00,81.0,33.0,-100.00,SSE,148,2.0,5.0,18,0.00,,,0.00,826.000000,,2013-06-14 17:11:00,
2013-06-14 10:22:00,81.0,33.0,-100.00,SSE,148,2.0,5.0,18,0.00,,,0.00,826.000000,,2013-06-14 17:22:00,
2013-06-14 10:34:00,81.0,33.0,-100.00,SSE,148,2.0,5.0,18,0.00,,,0.00,826.000000,,2013-06-14 17:34:00,
2013-06-14 10:43:00,81.0,33.0,-100.00,SSE,148,2.0,5.0,18,0.00,,,0.00,826.000000,,2013-06-14 17:43:00,
2013-06-14 10:51:00,88.0,35.0,-100.00,WNW,282,2.0,6.0,15,0.00,,,0.00,961.000000,,2013-06-14 17:51:00,
2013-06-14 11:22:00,88.0,35.0,-100.00,WNW,282,2.0,6.0,15,0.00,,,0.00,961.000000,,2013-06-14 18:22:00,
2013-06-14 11:32:00,88.0,35.0,-100.00,WNW,282,2.0,6.0,15,0.00,,,0.00,961.000000,,2013-06-14 18:32:00,
2013-06-14 11:42:00,88.0,35.0,-100.00,WNW,282,2.0,6.0,15,0.00,,,0.00,961.000000,,2013-06-14 18:42:00,
2013-06-14 11:51:00,90.0,31.0,-100.00,NNE,17,3.0,8.0,12,0.00,,,0.00,1138.000000,,2013-06-14 18:51:00,
2013-06-14 12:21:00,90.0,31.0,-100.00,NNE,17,3.0,8.0,12,0.00,,,0.00,1138.000000,,2013-06-14 19:21:00,
2013-06-14 12:32:00,90.0,31.0,-100.00,NNE,17,3.0,8.0,12,0.00,,,0.00,1138.000000,,2013-06-14 19:32:00,
2013-06-14 12:43:00,90.0,31.0,-100.00,NNE,17,3.0,8.0,12,0.00,,,0.00,1138.000000,,2013-06-14 19:43:00,
2013-06-14 12:51:00,91.0,35.0,-100.00,ENE,62,3.0,9.0,14,0.00,,,0.00,1192.000000,,2013-06-14 19:51:00,
2013-06-14 13:11:00,91.0,35.0,-100.00,ENE,62,3.0,9.0,14,0.00,,,0.00,1192.000000,,2013-06-14 20:11:00,
2013-06-14 13:22:00,91.0,35.0,-100.00,ENE,62,3.0,9.0,14,0.00,,,0.00,1192.000000,,2013-06-14 20:22:00,
2013-06-14 13:33:00,91.0,35.0,-100.00,ENE,62,3.0,9.0,14,0.00,,,0.00,1192.000000,,2013-06-14 20:33:00,
2013-06-14 13:43:00,91.0,35.0,-100.00,ENE,62,3.0,9.0,14,0.00,,,0.00,1192.000000,,2013-06-14 20:43:00,
2013-06-14 13:51:00,91.0,35.0,-100.00,West,265,3.0,15.0,14,0.00,,,0.00,1108.000000,,2013-06-14 20:51:00,
2013-06-14 14:11:00,91.0,35.0,-100.00,West,265,3.0,15.0,14,0.00,,,0.00,1108.000000,,2013-06-14 21:11:00,
2013-06-14 14:22:00,91.0,35.0,-100.00,West,265,3.0,15.0,14,0.00,,,0.00,1108.000000,,2013-06-14 21:22:00,
2013-06-14 14:34:00,91.0,35.0,-100.00,West,265,3.0,15.0,14,0.00,,,0.00,1108.000000,,2013-06-14 21:34:00,
2013-06-14 14:42:00,91.0,35.0,-100.00,West,265,3.0,15.0,14,0.00,,,0.00,1108.000000,,2013-06-14 21:42:00,
2013-06-14 14:51:00,91.0,37.0,-100.00,SE,139,3.0,14.0,15,0.00,,,0.00,904.000000,,2013-06-14 21:51:00,
2013-06-14 15:22:00,91.0,37.0,-100.00,SE,139,3.0,14.0,15,0.00,,,0.00,904.000000,,2013-06-14 22:22:00,
2013-06-14 15:33:00,91.0,37.0,-100.00,SE,139,3.0,14.0,15,0.00,,,0.00,904.000000,,2013-06-14 22:33:00,
2013-06-14 15:43:00,91.0,37.0,-100.00,SE,139,3.0,14.0,15,0.00,,,0.00,904.000000,,2013-06-14 22:43:00,
2013-06-14 15:51:00,92.0,39.0,-100.00,SE,128,4.0,11.0,16,0.00,,,0.00,893.000000,,2013-06-14 22:51:00,
2013-06-14 16:22:00,92.0,39.0,-100.00,SE,128,4.0,11.0,16,0.00,,,0.00,893.000000,,2013-06-14 23:22:00,
2013-06-14 16:33:00,92.0,39.0,-100.00,SE,128,4.0,11.0,16,0.00,,,0.00,893.000000,,2013-06-14 23:33:00,
2013-06-14 16:43:00,92.0,39.0,-100.00,SE,128,4.0,11.0,16,0.00,,,0.00,893.000000,,2013-06-14 23:43:00,
2013-06-14 16:51:00,88.0,39.0,-100.00,SSE,153,2.0,13.0,18,0.00,,,0.00,751.000000,,2013-06-14 23:51:00,
2013-06-14 17:11:00,88.0,39.0,-100.00,SSE,153,2.0,13.0,18,0.00,,,0.00,751.000000,,2013-06-15 00:11:00,
2013-06-14 17:22:00,88.0,39.0,-100.00,SSE,153,2.0,13.0,18,0.00,,,0.00,751.000000,,2013-06-15 00:22:00,
2013-06-14 17:33:00,88.0,39.0,-100.00,SSE,153,2.0,13.0,18,0.00,,,0.00,751.000000,,2013-06-15 00:33:00,
2013-06-14 17:43:00,88.0,39.0,-100.00,SSE,153,2.0,13.0,18,0.00,,,0.00,751.000000,,2013-06-15 00:43:00,
2013-06-14 17:51:00,86.0,38.0,-100.00,ENE,69,2.0,9.0,18,0.00,,,0.00,375.000000,,2013-06-15 00:51:00,
2013-06-14 18:11:00,86.0,38.0,-100.00,ENE,69,2.0,9.0,18,0.00,,,0.00,375.000000,,2013-06-15 01:11:00,
2013-06-14 18:22:00,86.0,38.0,-100.00,ENE,69,2.0,9.0,18,0.00,,,0.00,375.000000,,2013-06-15 01:22:00,
2013-06-14 18:33:00,86.0,38.0,-100.00,ENE,69,2.0,9.0,18,0.00,,,0.00,375.000000,,2013-06-15 01:33:00,
2013-06-14 18:43:00,86.0,38.0,-100.00,ENE,69,2.0,9.0,18,0.00,,,0.00,375.000000,,2013-06-15 01:43:00,
2013-06-14 18:51:00,84.0,37.0,-100.00,WNW,287,3.0,9.0,19,0.00,,,0.00,80.000000,,2013-06-15 01:51:00,
2013-06-14 19:22:00,84.0,37.0,-100.00,WNW,287,3.0,9.0,19,0.00,,,0.00,80.000000,,2013-06-15 02:22:00,
2013-06-14 19:33:00,84.0,37.0,-100.00,WNW,287,3.0,9.0,19,0.00,,,0.00,80.000000,,2013-06-15 02:33:00,
2013-06-14 19:43:00,84.0,37.0,-100.00,WNW,287,3.0,9.0,19,0.00,,,0.00,80.000000,,2013-06-15 02:43:00,
2013-06-14 19:51:00,79.0,32.0,-100.00,NW,312,1.0,10.0,18,0.00,,,0.00,50.000000,,2013-06-15 02:51:00,
2013-06-14 20:23:00,79.0,32.0,-100.00,NW,312,1.0,10.0,18,0.00,,,0.00,50.000000,,2013-06-15 03:23:00,
2013-06-14 20:32:00,79.0,32.0,-100.00,NW,312,1.0,10.0,18,0.00,,,0.00,50.000000,,2013-06-15 03:32:00,
2013-06-14 20:43:00,79.0,32.0,-100.00,NW,312,1.0,10.0,18,0.00,,,0.00,50.000000,,2013-06-15 03:43:00,
2013-06-14 20:51:00,73.0,34.0,-100.00,North,359,1.0,3.0,24,0.00,,,0.00,19.000000,,2013-06-15 03:51:00,
2013-06-14 21:22:00,73.0,34.0,-100.00,North,359,1.0,3.0,24,0.00,,,0.00,19.000000,,2013-06-15 04:22:00,
2013-06-14 21:34:00,73.0,34.0,-100.00,North,359,1.0,3.0,24,0.00,,,0.00,19.000000,,2013-06-15 04:34:00,
2013-06-14 21:43:00,73.0,34.0,-100.00,North,359,1.0,3.0,24,0.00,,,0.00,19.000000,,2013-06-15 04:43:00,
2013-06-14 21:51:00,68.0,33.0,-100.00,ENE,61,1.0,3.0,27,0.00,,,0.00,0.000000,,2013-06-15 04:51:00,
2013-06-14 22:12:00,68.0,33.0,-100.00,ENE,61,1.0,3.0,27,0.00,,,0.00,0.000000,,2013-06-15 05:12:00,
2013-06-14 22:22:00,68.0,33.0,-100.00,ENE,61,1.0,3.0,27,0.00,,,0.00,0.000000,,2013-06-15 05:22:00,
2013-06-14 22:42:00,68.0,33.0,-100.00,ENE,61,1.0,3.0,27,0.00,,,0.00,0.000000,,2013-06-15 05:42:00,
2013-06-14 22:51:00,66.0,34.0,-100.00,NNW,345,1.0,2.0,31,0.00,,,0.00,0.000000,,2013-06-15 05:51:00,
2013-06-14 23:12:00,66.0,34.0,-100.00,NNW,345,1.0,2.0,31,0.00,,,0.00,0.000000,,2013-06-15 06:12:00,
2013-06-14 23:24:00,66.0,34.0,-100.00,NNW,345,1.0,2.0,31,0.00,,,0.00,0.000000,,2013-06-15 06:24:00,
2013-06-14 23:33:00,66.0,34.0,-100.00,NNW,345,1.0,2.0,31,0.00,,,0.00,0.000000,,2013-06-15 06:33:00,
2013-06-14 23:43:00,66.0,34.0,-100.00,NNW,345,1.0,2.0,31,0.00,,,0.00,0.000000,,2013-06-15 06:43:00,
2013-06-14 23:51:00,64.0,35.0,-100.00,NNW,339,1.0,2.0,34,0.00,,,0.00,0.000000,,2013-06-15 06:51:00,